sensor_id;sensor_type;location;lat;lon;timestamp;P1;durP1;ratioP1;P2;durP2;ratioP2
41233;SDS011;26968;42.686;23.352;2024-01-07T00:01:26;51.10;;;21.85;;
41233;SDS011;26968;42.686;23.352;2024-01-07T00:03:51;46.58;;;22.25;;
41233;SDS011;26968;42.686;23.352;2024-01-07T00:06:17;53.85;;;22.88;;
41233;SDS011;26968;42.686;23.352;2024-01-07T00:08:43;58.88;;;22.85;;
41233;SDS011;26968;42.686;23.352;2024-01-07T00:11:08;54.95;;;22.95;;
41233;SDS011;26968;42.686;23.352;2024-01-07T00:13:34;52.35;;;23.17;;
41233;SDS011;26968;42.686;23.352;2024-01-07T00:15:59;65.93;;;25.48;;
41233;SDS011;26968;42.686;23.352;2024-01-07T00:18:25;51.95;;;24.30;;
41233;SDS011;26968;42.686;23.352;2024-01-07T00:20:52;53.30;;;24.85;;
41233;SDS011;26968;42.686;23.352;2024-01-07T00:23:18;51.25;;;24.73;;
41233;SDS011;26968;42.686;23.352;2024-01-07T00:25:45;52.67;;;24.77;;
41233;SDS011;26968;42.686;23.352;2024-01-07T00:28:12;60.80;;;26.15;;
41233;SDS011;26968;42.686;23.352;2024-01-07T00:30:37;52.63;;;24.25;;
41233;SDS011;26968;42.686;23.352;2024-01-07T00:33:03;56.55;;;25.25;;
41233;SDS011;26968;42.686;23.352;2024-01-07T00:35:28;60.63;;;25.52;;
41233;SDS011;26968;42.686;23.352;2024-01-07T00:37:54;55.47;;;25.50;;
41233;SDS011;26968;42.686;23.352;2024-01-07T00:40:21;64.55;;;24.75;;
41233;SDS011;26968;42.686;23.352;2024-01-07T00:42:51;50.38;;;23.70;;
41233;SDS011;26968;42.686;23.352;2024-01-07T00:45:17;58.63;;;26.40;;
41233;SDS011;26968;42.686;23.352;2024-01-07T00:47:43;49.40;;;24.00;;
41233;SDS011;26968;42.686;23.352;2024-01-07T00:50:09;63.72;;;26.80;;
41233;SDS011;26968;42.686;23.352;2024-01-07T00:52:34;54.53;;;24.88;;
41233;SDS011;26968;42.686;23.352;2024-01-07T00:55:02;55.15;;;26.30;;
41233;SDS011;26968;42.686;23.352;2024-01-07T00:57:29;55.88;;;24.85;;
41233;SDS011;26968;42.686;23.352;2024-01-07T00:59:55;51.53;;;23.30;;
41233;SDS011;26968;42.686;23.352;2024-01-07T01:02:20;53.75;;;24.55;;
41233;SDS011;26968;42.686;23.352;2024-01-07T01:04:47;50.60;;;23.23;;
41233;SDS011;26968;42.686;23.352;2024-01-07T01:07:12;58.15;;;24.92;;
41233;SDS011;26968;42.686;23.352;2024-01-07T01:09:38;50.28;;;24.67;;
41233;SDS011;26968;42.686;23.352;2024-01-07T01:12:04;59.95;;;23.95;;
41233;SDS011;26968;42.686;23.352;2024-01-07T01:14:29;48.83;;;23.73;;
41233;SDS011;26968;42.686;23.352;2024-01-07T01:16:55;45.22;;;23.40;;
41233;SDS011;26968;42.686;23.352;2024-01-07T01:19:20;48.78;;;23.50;;
41233;SDS011;26968;42.686;23.352;2024-01-07T01:21:46;55.28;;;24.58;;
41233;SDS011;26968;42.686;23.352;2024-01-07T01:24:11;51.30;;;24.65;;
41233;SDS011;26968;42.686;23.352;2024-01-07T01:26:37;45.75;;;22.08;;
41233;SDS011;26968;42.686;23.352;2024-01-07T01:29:04;49.35;;;23.90;;
41233;SDS011;26968;42.686;23.352;2024-01-07T01:31:30;53.35;;;22.88;;
41233;SDS011;26968;42.686;23.352;2024-01-07T01:33:55;42.20;;;21.40;;
41233;SDS011;26968;42.686;23.352;2024-01-07T01:36:21;48.75;;;22.50;;
41233;SDS011;26968;42.686;23.352;2024-01-07T01:38:46;49.40;;;22.08;;
41233;SDS011;26968;42.686;23.352;2024-01-07T01:41:13;45.78;;;21.33;;
41233;SDS011;26968;42.686;23.352;2024-01-07T01:43:39;53.28;;;22.77;;
41233;SDS011;26968;42.686;23.352;2024-01-07T01:46:05;48.33;;;22.13;;
41233;SDS011;26968;42.686;23.352;2024-01-07T01:48:30;44.97;;;21.48;;
41233;SDS011;26968;42.686;23.352;2024-01-07T01:50:56;42.50;;;21.98;;
41233;SDS011;26968;42.686;23.352;2024-01-07T01:53:23;50.60;;;20.80;;
41233;SDS011;26968;42.686;23.352;2024-01-07T01:55:52;51.88;;;21.58;;
41233;SDS011;26968;42.686;23.352;2024-01-07T01:58:20;45.72;;;20.85;;
41233;SDS011;26968;42.686;23.352;2024-01-07T02:00:46;41.40;;;21.33;;
41233;SDS011;26968;42.686;23.352;2024-01-07T02:03:12;49.15;;;20.85;;
41233;SDS011;26968;42.686;23.352;2024-01-07T02:05:38;40.70;;;21.50;;
41233;SDS011;26968;42.686;23.352;2024-01-07T02:08:03;44.33;;;21.95;;
41233;SDS011;26968;42.686;23.352;2024-01-07T02:10:30;48.83;;;21.45;;
41233;SDS011;26968;42.686;23.352;2024-01-07T02:12:59;41.85;;;20.77;;
41233;SDS011;26968;42.686;23.352;2024-01-07T02:15:25;45.00;;;19.50;;
41233;SDS011;26968;42.686;23.352;2024-01-07T02:17:51;43.80;;;21.52;;
41233;SDS011;26968;42.686;23.352;2024-01-07T02:20:17;41.95;;;20.45;;
41233;SDS011;26968;42.686;23.352;2024-01-07T02:22:42;52.72;;;21.48;;
41233;SDS011;26968;42.686;23.352;2024-01-07T02:25:08;53.78;;;21.60;;
41233;SDS011;26968;42.686;23.352;2024-01-07T02:27:34;45.58;;;22.02;;
41233;SDS011;26968;42.686;23.352;2024-01-07T02:29:59;50.75;;;20.92;;
41233;SDS011;26968;42.686;23.352;2024-01-07T02:32:25;48.17;;;20.65;;
41233;SDS011;26968;42.686;23.352;2024-01-07T02:34:51;49.58;;;21.00;;
41233;SDS011;26968;42.686;23.352;2024-01-07T02:37:17;44.25;;;21.27;;
41233;SDS011;26968;42.686;23.352;2024-01-07T02:39:42;52.40;;;21.58;;
41233;SDS011;26968;42.686;23.352;2024-01-07T02:42:09;43.22;;;21.38;;
41233;SDS011;26968;42.686;23.352;2024-01-07T02:44:35;42.08;;;22.17;;
41233;SDS011;26968;42.686;23.352;2024-01-07T02:47:00;43.97;;;22.25;;
41233;SDS011;26968;42.686;23.352;2024-01-07T02:49:26;42.67;;;21.92;;
41233;SDS011;26968;42.686;23.352;2024-01-07T02:51:53;43.17;;;22.67;;
41233;SDS011;26968;42.686;23.352;2024-01-07T02:54:18;55.08;;;22.35;;
41233;SDS011;26968;42.686;23.352;2024-01-07T02:56:44;46.85;;;21.23;;
41233;SDS011;26968;42.686;23.352;2024-01-07T02:59:09;48.38;;;21.45;;
41233;SDS011;26968;42.686;23.352;2024-01-07T03:01:34;55.17;;;22.00;;
41233;SDS011;26968;42.686;23.352;2024-01-07T03:04:05;46.05;;;22.17;;
41233;SDS011;26968;42.686;23.352;2024-01-07T03:06:33;45.42;;;21.95;;
41233;SDS011;26968;42.686;23.352;2024-01-07T03:08:58;45.20;;;22.65;;
41233;SDS011;26968;42.686;23.352;2024-01-07T03:11:24;40.70;;;20.58;;
41233;SDS011;26968;42.686;23.352;2024-01-07T03:13:49;55.03;;;23.25;;
41233;SDS011;26968;42.686;23.352;2024-01-07T03:16:21;50.33;;;23.63;;
41233;SDS011;26968;42.686;23.352;2024-01-07T03:18:48;53.55;;;23.58;;
41233;SDS011;26968;42.686;23.352;2024-01-07T03:21:20;43.08;;;22.77;;
41233;SDS011;26968;42.686;23.352;2024-01-07T03:23:47;45.95;;;23.55;;
41233;SDS011;26968;42.686;23.352;2024-01-07T03:26:13;52.78;;;23.52;;
41233;SDS011;26968;42.686;23.352;2024-01-07T03:28:39;47.28;;;21.10;;
41233;SDS011;26968;42.686;23.352;2024-01-07T03:31:07;49.30;;;21.23;;
41233;SDS011;26968;42.686;23.352;2024-01-07T03:33:36;38.65;;;20.77;;
41233;SDS011;26968;42.686;23.352;2024-01-07T03:36:12;37.28;;;18.80;;
41233;SDS011;26968;42.686;23.352;2024-01-07T03:38:39;39.58;;;19.88;;
41233;SDS011;26968;42.686;23.352;2024-01-07T03:41:06;36.35;;;18.73;;
41233;SDS011;26968;42.686;23.352;2024-01-07T03:43:32;35.25;;;17.25;;
41233;SDS011;26968;42.686;23.352;2024-01-07T03:45:58;35.25;;;17.58;;
41233;SDS011;26968;42.686;23.352;2024-01-07T03:48:24;37.00;;;17.70;;
41233;SDS011;26968;42.686;23.352;2024-01-07T03:50:50;37.03;;;19.33;;
41233;SDS011;26968;42.686;23.352;2024-01-07T03:53:16;36.55;;;18.65;;
41233;SDS011;26968;42.686;23.352;2024-01-07T03:55:41;39.65;;;16.88;;
41233;SDS011;26968;42.686;23.352;2024-01-07T03:58:07;37.58;;;18.90;;
41233;SDS011;26968;42.686;23.352;2024-01-07T04:00:33;32.75;;;16.45;;
41233;SDS011;26968;42.686;23.352;2024-01-07T04:02:59;29.05;;;14.43;;
41233;SDS011;26968;42.686;23.352;2024-01-07T04:05:25;27.27;;;13.55;;
41233;SDS011;26968;42.686;23.352;2024-01-07T04:07:51;27.00;;;14.15;;
41233;SDS011;26968;42.686;23.352;2024-01-07T04:10:16;28.92;;;13.73;;
41233;SDS011;26968;42.686;23.352;2024-01-07T04:12:42;34.60;;;12.30;;
41233;SDS011;26968;42.686;23.352;2024-01-07T04:15:08;27.17;;;12.40;;
41233;SDS011;26968;42.686;23.352;2024-01-07T04:17:34;25.77;;;12.60;;
41233;SDS011;26968;42.686;23.352;2024-01-07T04:20:00;32.75;;;12.50;;
41233;SDS011;26968;42.686;23.352;2024-01-07T04:22:25;24.58;;;12.05;;
41233;SDS011;26968;42.686;23.352;2024-01-07T04:24:51;24.40;;;11.40;;
41233;SDS011;26968;42.686;23.352;2024-01-07T04:27:16;23.88;;;10.02;;
41233;SDS011;26968;42.686;23.352;2024-01-07T04:29:42;13.55;;;8.27;;
41233;SDS011;26968;42.686;23.352;2024-01-07T04:32:07;22.33;;;10.15;;
41233;SDS011;26968;42.686;23.352;2024-01-07T04:34:33;17.95;;;9.80;;
41233;SDS011;26968;42.686;23.352;2024-01-07T04:36:58;22.42;;;10.52;;
41233;SDS011;26968;42.686;23.352;2024-01-07T04:39:24;26.13;;;10.85;;
41233;SDS011;26968;42.686;23.352;2024-01-07T04:41:49;18.23;;;10.10;;
41233;SDS011;26968;42.686;23.352;2024-01-07T04:44:15;16.05;;;7.85;;
41233;SDS011;26968;42.686;23.352;2024-01-07T04:46:40;16.73;;;8.65;;
41233;SDS011;26968;42.686;23.352;2024-01-07T04:49:06;14.77;;;8.05;;
41233;SDS011;26968;42.686;23.352;2024-01-07T04:51:32;18.25;;;9.23;;
41233;SDS011;26968;42.686;23.352;2024-01-07T04:53:58;20.00;;;8.32;;
41233;SDS011;26968;42.686;23.352;2024-01-07T04:56:24;26.33;;;13.32;;
41233;SDS011;26968;42.686;23.352;2024-01-07T04:58:49;26.80;;;12.65;;
41233;SDS011;26968;42.686;23.352;2024-01-07T05:01:15;26.23;;;14.43;;
41233;SDS011;26968;42.686;23.352;2024-01-07T05:03:41;26.40;;;14.32;;
41233;SDS011;26968;42.686;23.352;2024-01-07T05:06:09;28.05;;;15.65;;
41233;SDS011;26968;42.686;23.352;2024-01-07T05:08:36;29.33;;;14.07;;
41233;SDS011;26968;42.686;23.352;2024-01-07T05:11:02;30.02;;;14.98;;
41233;SDS011;26968;42.686;23.352;2024-01-07T05:13:28;34.17;;;17.35;;
41233;SDS011;26968;42.686;23.352;2024-01-07T05:15:54;33.40;;;17.10;;
41233;SDS011;26968;42.686;23.352;2024-01-07T05:18:22;37.38;;;18.50;;
41233;SDS011;26968;42.686;23.352;2024-01-07T05:20:49;36.65;;;17.80;;
41233;SDS011;26968;42.686;23.352;2024-01-07T05:23:15;35.95;;;17.77;;
41233;SDS011;26968;42.686;23.352;2024-01-07T05:25:44;36.30;;;18.45;;
41233;SDS011;26968;42.686;23.352;2024-01-07T05:28:10;29.67;;;14.65;;
41233;SDS011;26968;42.686;23.352;2024-01-07T05:30:37;30.45;;;15.68;;
41233;SDS011;26968;42.686;23.352;2024-01-07T05:33:03;35.80;;;15.18;;
41233;SDS011;26968;42.686;23.352;2024-01-07T05:35:29;28.75;;;13.75;;
41233;SDS011;26968;42.686;23.352;2024-01-07T05:37:55;20.98;;;12.35;;
41233;SDS011;26968;42.686;23.352;2024-01-07T05:40:21;23.67;;;12.57;;
41233;SDS011;26968;42.686;23.352;2024-01-07T05:42:47;26.52;;;13.75;;
41233;SDS011;26968;42.686;23.352;2024-01-07T05:45:12;23.33;;;13.63;;
41233;SDS011;26968;42.686;23.352;2024-01-07T05:47:38;23.95;;;13.77;;
41233;SDS011;26968;42.686;23.352;2024-01-07T05:50:05;27.55;;;13.98;;
41233;SDS011;26968;42.686;23.352;2024-01-07T05:52:31;31.15;;;13.45;;
41233;SDS011;26968;42.686;23.352;2024-01-07T05:54:57;26.58;;;13.07;;
41233;SDS011;26968;42.686;23.352;2024-01-07T05:57:23;24.05;;;13.52;;
41233;SDS011;26968;42.686;23.352;2024-01-07T05:59:48;33.08;;;13.52;;
41233;SDS011;26968;42.686;23.352;2024-01-07T06:02:15;22.67;;;12.65;;
41233;SDS011;26968;42.686;23.352;2024-01-07T06:04:42;28.48;;;13.05;;
41233;SDS011;26968;42.686;23.352;2024-01-07T06:07:07;27.88;;;13.25;;
41233;SDS011;26968;42.686;23.352;2024-01-07T06:09:33;28.40;;;13.15;;
41233;SDS011;26968;42.686;23.352;2024-01-07T06:11:59;24.95;;;12.60;;
41233;SDS011;26968;42.686;23.352;2024-01-07T06:14:26;22.58;;;12.32;;
41233;SDS011;26968;42.686;23.352;2024-01-07T06:16:51;25.58;;;12.30;;
41233;SDS011;26968;42.686;23.352;2024-01-07T06:19:17;20.48;;;11.43;;
41233;SDS011;26968;42.686;23.352;2024-01-07T06:21:43;22.83;;;11.20;;
41233;SDS011;26968;42.686;23.352;2024-01-07T06:24:09;18.75;;;11.00;;
41233;SDS011;26968;42.686;23.352;2024-01-07T06:26:35;22.98;;;12.13;;
41233;SDS011;26968;42.686;23.352;2024-01-07T06:29:01;28.58;;;12.40;;
41233;SDS011;26968;42.686;23.352;2024-01-07T06:31:26;24.58;;;11.75;;
41233;SDS011;26968;42.686;23.352;2024-01-07T06:33:52;23.58;;;12.00;;
41233;SDS011;26968;42.686;23.352;2024-01-07T06:36:21;20.65;;;12.18;;
41233;SDS011;26968;42.686;23.352;2024-01-07T06:38:47;30.35;;;12.55;;
41233;SDS011;26968;42.686;23.352;2024-01-07T06:41:13;22.60;;;13.13;;
41233;SDS011;26968;42.686;23.352;2024-01-07T06:43:39;24.70;;;13.35;;
41233;SDS011;26968;42.686;23.352;2024-01-07T06:46:05;27.55;;;11.70;;
41233;SDS011;26968;42.686;23.352;2024-01-07T06:48:30;29.38;;;13.27;;
41233;SDS011;26968;42.686;23.352;2024-01-07T06:50:57;22.17;;;13.40;;
41233;SDS011;26968;42.686;23.352;2024-01-07T06:53:22;26.42;;;13.65;;
41233;SDS011;26968;42.686;23.352;2024-01-07T06:55:48;28.10;;;13.35;;
41233;SDS011;26968;42.686;23.352;2024-01-07T06:58:13;28.08;;;12.85;;
41233;SDS011;26968;42.686;23.352;2024-01-07T07:00:39;26.08;;;12.63;;
41233;SDS011;26968;42.686;23.352;2024-01-07T07:03:05;28.30;;;12.63;;
41233;SDS011;26968;42.686;23.352;2024-01-07T07:05:31;21.90;;;12.35;;
41233;SDS011;26968;42.686;23.352;2024-01-07T07:07:57;30.08;;;13.70;;
41233;SDS011;26968;42.686;23.352;2024-01-07T07:10:23;27.60;;;13.07;;
41233;SDS011;26968;42.686;23.352;2024-01-07T07:12:48;25.27;;;13.32;;
41233;SDS011;26968;42.686;23.352;2024-01-07T07:15:16;20.55;;;12.40;;
41233;SDS011;26968;42.686;23.352;2024-01-07T07:17:41;25.70;;;12.85;;
41233;SDS011;26968;42.686;23.352;2024-01-07T07:20:07;26.33;;;12.45;;
41233;SDS011;26968;42.686;23.352;2024-01-07T07:22:33;29.48;;;13.73;;
41233;SDS011;26968;42.686;23.352;2024-01-07T07:24:59;31.13;;;14.60;;
41233;SDS011;26968;42.686;23.352;2024-01-07T07:27:25;25.05;;;13.93;;
41233;SDS011;26968;42.686;23.352;2024-01-07T07:29:50;26.80;;;12.80;;
41233;SDS011;26968;42.686;23.352;2024-01-07T07:32:16;27.95;;;13.23;;
41233;SDS011;26968;42.686;23.352;2024-01-07T07:34:41;27.98;;;13.15;;
41233;SDS011;26968;42.686;23.352;2024-01-07T07:37:07;32.03;;;15.07;;
41233;SDS011;26968;42.686;23.352;2024-01-07T07:39:32;23.15;;;12.60;;
41233;SDS011;26968;42.686;23.352;2024-01-07T07:41:58;34.00;;;14.57;;
41233;SDS011;26968;42.686;23.352;2024-01-07T07:44:25;22.98;;;12.48;;
41233;SDS011;26968;42.686;23.352;2024-01-07T07:46:50;23.40;;;12.52;;
41233;SDS011;26968;42.686;23.352;2024-01-07T07:49:16;24.25;;;12.98;;
41233;SDS011;26968;42.686;23.352;2024-01-07T07:51:43;33.72;;;13.40;;
41233;SDS011;26968;42.686;23.352;2024-01-07T07:54:08;23.00;;;12.18;;
41233;SDS011;26968;42.686;23.352;2024-01-07T07:56:34;26.88;;;12.05;;
41233;SDS011;26968;42.686;23.352;2024-01-07T07:59:01;29.70;;;13.70;;
41233;SDS011;26968;42.686;23.352;2024-01-07T08:01:27;27.50;;;14.73;;
41233;SDS011;26968;42.686;23.352;2024-01-07T08:03:52;26.60;;;12.05;;
41233;SDS011;26968;42.686;23.352;2024-01-07T08:06:18;27.08;;;13.77;;
41233;SDS011;26968;42.686;23.352;2024-01-07T08:08:43;27.77;;;14.07;;
41233;SDS011;26968;42.686;23.352;2024-01-07T08:11:09;30.10;;;14.07;;
41233;SDS011;26968;42.686;23.352;2024-01-07T08:13:35;24.83;;;12.82;;
41233;SDS011;26968;42.686;23.352;2024-01-07T08:16:01;28.23;;;14.85;;
41233;SDS011;26968;42.686;23.352;2024-01-07T08:18:27;24.08;;;13.20;;
41233;SDS011;26968;42.686;23.352;2024-01-07T08:20:52;33.55;;;14.45;;
41233;SDS011;26968;42.686;23.352;2024-01-07T08:23:18;30.73;;;17.50;;
41233;SDS011;26968;42.686;23.352;2024-01-07T08:25:43;31.70;;;16.17;;
41233;SDS011;26968;42.686;23.352;2024-01-07T08:28:10;31.45;;;16.05;;
41233;SDS011;26968;42.686;23.352;2024-01-07T08:30:36;33.33;;;17.08;;
41233;SDS011;26968;42.686;23.352;2024-01-07T08:33:01;47.60;;;18.83;;
41233;SDS011;26968;42.686;23.352;2024-01-07T08:35:27;31.52;;;17.55;;
41233;SDS011;26968;42.686;23.352;2024-01-07T08:37:52;34.15;;;18.67;;
41233;SDS011;26968;42.686;23.352;2024-01-07T08:40:18;33.80;;;19.23;;
41233;SDS011;26968;42.686;23.352;2024-01-07T08:42:44;43.92;;;21.85;;
41233;SDS011;26968;42.686;23.352;2024-01-07T08:45:10;46.47;;;22.35;;
41233;SDS011;26968;42.686;23.352;2024-01-07T08:47:36;35.63;;;21.75;;
41233;SDS011;26968;42.686;23.352;2024-01-07T08:50:02;41.33;;;21.13;;
41233;SDS011;26968;42.686;23.352;2024-01-07T08:52:28;39.45;;;22.02;;
41233;SDS011;26968;42.686;23.352;2024-01-07T08:54:54;38.95;;;21.88;;
41233;SDS011;26968;42.686;23.352;2024-01-07T08:57:20;35.85;;;20.77;;
41233;SDS011;26968;42.686;23.352;2024-01-07T08:59:46;41.92;;;20.55;;
41233;SDS011;26968;42.686;23.352;2024-01-07T09:02:11;42.60;;;19.65;;
41233;SDS011;26968;42.686;23.352;2024-01-07T09:04:37;31.73;;;16.60;;
41233;SDS011;26968;42.686;23.352;2024-01-07T09:07:03;31.27;;;19.25;;
41233;SDS011;26968;42.686;23.352;2024-01-07T09:09:28;32.22;;;18.27;;
41233;SDS011;26968;42.686;23.352;2024-01-07T09:11:54;34.92;;;20.60;;
41233;SDS011;26968;42.686;23.352;2024-01-07T09:14:21;35.42;;;18.23;;
41233;SDS011;26968;42.686;23.352;2024-01-07T09:16:47;33.08;;;16.58;;
41233;SDS011;26968;42.686;23.352;2024-01-07T09:19:12;27.80;;;14.95;;
41233;SDS011;26968;42.686;23.352;2024-01-07T09:21:38;26.38;;;14.43;;
41233;SDS011;26968;42.686;23.352;2024-01-07T09:24:04;25.33;;;14.40;;
41233;SDS011;26968;42.686;23.352;2024-01-07T09:26:30;31.27;;;14.57;;
41233;SDS011;26968;42.686;23.352;2024-01-07T09:28:56;21.95;;;13.18;;
41233;SDS011;26968;42.686;23.352;2024-01-07T09:31:22;27.00;;;14.27;;
41233;SDS011;26968;42.686;23.352;2024-01-07T09:33:47;31.70;;;16.45;;
41233;SDS011;26968;42.686;23.352;2024-01-07T09:36:13;29.17;;;15.82;;
41233;SDS011;26968;42.686;23.352;2024-01-07T09:38:38;28.40;;;16.10;;
41233;SDS011;26968;42.686;23.352;2024-01-07T09:41:05;24.17;;;14.30;;
41233;SDS011;26968;42.686;23.352;2024-01-07T09:43:31;23.60;;;13.48;;
41233;SDS011;26968;42.686;23.352;2024-01-07T09:45:56;33.20;;;15.32;;
41233;SDS011;26968;42.686;23.352;2024-01-07T09:48:23;27.38;;;14.23;;
41233;SDS011;26968;42.686;23.352;2024-01-07T09:50:49;24.98;;;14.18;;
41233;SDS011;26968;42.686;23.352;2024-01-07T09:53:20;25.40;;;13.07;;
41233;SDS011;26968;42.686;23.352;2024-01-07T09:58:18;24.25;;;12.45;;
41233;SDS011;26968;42.686;23.352;2024-01-07T10:00:43;24.95;;;11.35;;
41233;SDS011;26968;42.686;23.352;2024-01-07T10:03:09;30.95;;;12.45;;
41233;SDS011;26968;42.686;23.352;2024-01-07T10:05:35;19.25;;;10.48;;
41233;SDS011;26968;42.686;23.352;2024-01-07T10:08:00;19.75;;;10.82;;
41233;SDS011;26968;42.686;23.352;2024-01-07T10:10:27;21.80;;;8.95;;
41233;SDS011;26968;42.686;23.352;2024-01-07T10:12:53;16.08;;;8.10;;
41233;SDS011;26968;42.686;23.352;2024-01-07T10:15:21;22.65;;;7.97;;
41233;SDS011;26968;42.686;23.352;2024-01-07T10:17:47;14.55;;;6.25;;
41233;SDS011;26968;42.686;23.352;2024-01-07T10:20:13;12.38;;;6.50;;
41233;SDS011;26968;42.686;23.352;2024-01-07T10:22:38;11.35;;;6.38;;
41233;SDS011;26968;42.686;23.352;2024-01-07T10:25:05;19.30;;;7.63;;
41233;SDS011;26968;42.686;23.352;2024-01-07T10:27:37;11.60;;;7.05;;
41233;SDS011;26968;42.686;23.352;2024-01-07T10:30:03;12.43;;;6.82;;
41233;SDS011;26968;42.686;23.352;2024-01-07T10:32:29;13.00;;;7.18;;
41233;SDS011;26968;42.686;23.352;2024-01-07T10:34:57;17.65;;;7.60;;
41233;SDS011;26968;42.686;23.352;2024-01-07T10:37:30;17.85;;;8.50;;
41233;SDS011;26968;42.686;23.352;2024-01-07T10:39:59;19.08;;;10.45;;
41233;SDS011;26968;42.686;23.352;2024-01-07T10:42:32;23.35;;;13.15;;
41233;SDS011;26968;42.686;23.352;2024-01-07T10:45:01;17.90;;;7.82;;
41233;SDS011;26968;42.686;23.352;2024-01-07T10:47:31;13.98;;;6.88;;
41233;SDS011;26968;42.686;23.352;2024-01-07T10:49:57;13.23;;;7.57;;
41233;SDS011;26968;42.686;23.352;2024-01-07T10:52:26;14.90;;;7.70;;
41233;SDS011;26968;42.686;23.352;2024-01-07T10:54:52;14.50;;;7.22;;
41233;SDS011;26968;42.686;23.352;2024-01-07T10:57:21;21.23;;;7.70;;
41233;SDS011;26968;42.686;23.352;2024-01-07T10:59:57;15.25;;;7.90;;
41233;SDS011;26968;42.686;23.352;2024-01-07T11:02:25;15.00;;;7.57;;
41233;SDS011;26968;42.686;23.352;2024-01-07T11:04:54;11.57;;;6.72;;
41233;SDS011;26968;42.686;23.352;2024-01-07T11:07:43;16.50;;;6.10;;
41233;SDS011;26968;42.686;23.352;2024-01-07T11:10:14;19.13;;;8.18;;
41233;SDS011;26968;42.686;23.352;2024-01-07T11:18:18;16.77;;;8.35;;
41233;SDS011;26968;42.686;23.352;2024-01-07T11:20:45;19.42;;;8.38;;
41233;SDS011;26968;42.686;23.352;2024-01-07T11:23:33;11.38;;;6.50;;
41233;SDS011;26968;42.686;23.352;2024-01-07T11:26:01;13.35;;;6.00;;
41233;SDS011;26968;42.686;23.352;2024-01-07T11:31:19;11.53;;;5.03;;
41233;SDS011;26968;42.686;23.352;2024-01-07T11:33:46;7.68;;;4.68;;
41233;SDS011;26968;42.686;23.352;2024-01-07T11:36:14;10.68;;;4.50;;
41233;SDS011;26968;42.686;23.352;2024-01-07T11:41:10;9.50;;;4.72;;
41233;SDS011;26968;42.686;23.352;2024-01-07T11:43:37;14.18;;;5.15;;
41233;SDS011;26968;42.686;23.352;2024-01-07T11:46:03;11.13;;;4.28;;
41233;SDS011;26968;42.686;23.352;2024-01-07T11:48:28;8.55;;;4.55;;
41233;SDS011;26968;42.686;23.352;2024-01-07T11:50:54;4.15;;;3.25;;
41233;SDS011;26968;42.686;23.352;2024-01-07T11:53:20;6.82;;;2.45;;
41233;SDS011;26968;42.686;23.352;2024-01-07T11:55:46;8.27;;;4.18;;
41233;SDS011;26968;42.686;23.352;2024-01-07T11:58:12;6.15;;;3.28;;
41233;SDS011;26968;42.686;23.352;2024-01-07T12:00:37;6.90;;;3.13;;
41233;SDS011;26968;42.686;23.352;2024-01-07T12:03:03;5.97;;;3.17;;
41233;SDS011;26968;42.686;23.352;2024-01-07T12:05:29;10.02;;;3.03;;
41233;SDS011;26968;42.686;23.352;2024-01-07T12:07:55;4.25;;;3.25;;
41233;SDS011;26968;42.686;23.352;2024-01-07T12:10:22;6.93;;;4.05;;
41233;SDS011;26968;42.686;23.352;2024-01-07T12:12:48;14.18;;;3.92;;
41233;SDS011;26968;42.686;23.352;2024-01-07T12:15:16;8.68;;;4.22;;
41233;SDS011;26968;42.686;23.352;2024-01-07T12:17:42;7.03;;;3.55;;
41233;SDS011;26968;42.686;23.352;2024-01-07T12:20:07;7.00;;;3.58;;
41233;SDS011;26968;42.686;23.352;2024-01-07T12:22:38;8.45;;;3.60;;
41233;SDS011;26968;42.686;23.352;2024-01-07T12:25:07;9.05;;;4.30;;
41233;SDS011;26968;42.686;23.352;2024-01-07T12:27:34;9.48;;;4.20;;
41233;SDS011;26968;42.686;23.352;2024-01-07T12:30:00;11.38;;;3.67;;
41233;SDS011;26968;42.686;23.352;2024-01-07T12:32:27;11.13;;;3.47;;
41233;SDS011;26968;42.686;23.352;2024-01-07T12:34:53;12.77;;;4.15;;
41233;SDS011;26968;42.686;23.352;2024-01-07T12:37:18;12.80;;;5.60;;
41233;SDS011;26968;42.686;23.352;2024-01-07T12:39:44;14.20;;;5.65;;
41233;SDS011;26968;42.686;23.352;2024-01-07T12:42:09;13.25;;;5.43;;
41233;SDS011;26968;42.686;23.352;2024-01-07T12:44:36;17.05;;;6.43;;
41233;SDS011;26968;42.686;23.352;2024-01-07T12:47:01;16.40;;;5.22;;
41233;SDS011;26968;42.686;23.352;2024-01-07T12:49:28;14.48;;;6.07;;
41233;SDS011;26968;42.686;23.352;2024-01-07T12:51:54;15.23;;;6.45;;
41233;SDS011;26968;42.686;23.352;2024-01-07T12:54:19;12.20;;;5.47;;
41233;SDS011;26968;42.686;23.352;2024-01-07T12:56:46;12.52;;;6.25;;
41233;SDS011;26968;42.686;23.352;2024-01-07T12:59:11;14.60;;;6.00;;
41233;SDS011;26968;42.686;23.352;2024-01-07T13:01:37;19.83;;;6.13;;
41233;SDS011;26968;42.686;23.352;2024-01-07T13:04:02;14.45;;;6.72;;
41233;SDS011;26968;42.686;23.352;2024-01-07T13:06:28;19.27;;;9.05;;
41233;SDS011;26968;42.686;23.352;2024-01-07T13:08:54;16.60;;;6.75;;
41233;SDS011;26968;42.686;23.352;2024-01-07T13:11:20;21.48;;;8.57;;
41233;SDS011;26968;42.686;23.352;2024-01-07T13:13:47;21.70;;;6.60;;
41233;SDS011;26968;42.686;23.352;2024-01-07T13:16:12;16.70;;;5.82;;
41233;SDS011;26968;42.686;23.352;2024-01-07T13:18:38;14.18;;;6.00;;
41233;SDS011;26968;42.686;23.352;2024-01-07T13:21:03;13.32;;;5.35;;
41233;SDS011;26968;42.686;23.352;2024-01-07T13:23:31;13.40;;;5.80;;
41233;SDS011;26968;42.686;23.352;2024-01-07T13:25:57;12.75;;;5.45;;
41233;SDS011;26968;42.686;23.352;2024-01-07T13:28:23;13.60;;;5.43;;
41233;SDS011;26968;42.686;23.352;2024-01-07T13:30:49;14.18;;;5.68;;
41233;SDS011;26968;42.686;23.352;2024-01-07T13:33:14;12.02;;;5.57;;
41233;SDS011;26968;42.686;23.352;2024-01-07T13:35:43;12.85;;;5.65;;
41233;SDS011;26968;42.686;23.352;2024-01-07T13:38:08;14.32;;;5.90;;
41233;SDS011;26968;42.686;23.352;2024-01-07T13:40:34;24.60;;;6.50;;
41233;SDS011;26968;42.686;23.352;2024-01-07T13:43:00;18.05;;;6.30;;
41233;SDS011;26968;42.686;23.352;2024-01-07T13:45:26;19.23;;;6.72;;
41233;SDS011;26968;42.686;23.352;2024-01-07T13:47:51;12.65;;;6.90;;
41233;SDS011;26968;42.686;23.352;2024-01-07T13:50:17;16.23;;;6.93;;
41233;SDS011;26968;42.686;23.352;2024-01-07T13:52:43;21.23;;;7.03;;
41233;SDS011;26968;42.686;23.352;2024-01-07T13:55:09;14.23;;;6.40;;
41233;SDS011;26968;42.686;23.352;2024-01-07T13:57:35;13.82;;;5.78;;
41233;SDS011;26968;42.686;23.352;2024-01-07T14:00:01;14.73;;;6.65;;
41233;SDS011;26968;42.686;23.352;2024-01-07T14:02:33;17.33;;;6.57;;
41233;SDS011;26968;42.686;23.352;2024-01-07T14:04:59;15.52;;;6.13;;
41233;SDS011;26968;42.686;23.352;2024-01-07T14:07:24;19.27;;;6.53;;
41233;SDS011;26968;42.686;23.352;2024-01-07T14:09:51;23.08;;;6.80;;
41233;SDS011;26968;42.686;23.352;2024-01-07T14:12:17;18.25;;;7.75;;
41233;SDS011;26968;42.686;23.352;2024-01-07T14:14:43;22.35;;;8.23;;
41233;SDS011;26968;42.686;23.352;2024-01-07T14:17:08;16.30;;;7.10;;
41233;SDS011;26968;42.686;23.352;2024-01-07T14:19:34;16.52;;;7.47;;
41233;SDS011;26968;42.686;23.352;2024-01-07T14:21:59;13.88;;;7.35;;